Time;durP1;ratioP1;P1;durP2;ratioP2;P2;SDS_P1;SDS_P2;PMS_P1;PMS_P2;Temp;Humidity;BMP_temperature;BMP_pressure;BME280_temperature;BME280_humidity;BME280_pressure;Samples;Min_cycle;Max_cycle;Signal;HPM_P1;HPM_P2
2022/06/24 00:00:48;;;;;;;21.23;16.23;;;;;;;;;;5092135;28;20048;-71
2022/06/24 00:03:19;;;;;;;24.38;16.63;;;;;;;;;;5091694;28;20540;-71
2022/06/24 00:05:48;;;;;;;21.95;16.60;;;;;;;;;;5091735;28;20108;-71
2022/06/24 00:08:18;;;;;;;21.90;15.95;;;;;;;;;;5091675;28;20540;-71
2022/06/24 00:10:44;;;;;;;20.27;17.02;;;;;;;;;;5091681;28;20083;-71
2022/06/24 00:13:10;;;;;;;21.73;16.67;;;;;;;;;;5091836;28;20080;-70
2022/06/24 00:15:37;;;;;;;23.70;16.00;;;;;;;;;;5091704;28;20112;-70
2022/06/24 00:18:12;;;;;;;17.40;14.45;;;;;;;;;;5091505;28;20153;-71
2022/06/24 00:20:49;;;;;;;19.80;15.55;;;;;;;;;;5091925;28;20098;-70
2022/06/24 00:23:16;;;;;;;23.83;17.30;;;;;;;;;;5091860;28;20052;-70
2022/06/24 00:25:43;;;;;;;22.95;17.48;;;;;;;;;;5091944;28;20086;-70
2022/06/24 00:28:10;;;;;;;22.85;16.77;;;;;;;;;;5091606;28;20048;-70
2022/06/24 00:30:38;;;;;;;21.70;17.50;;;;;;;;;;5094687;28;20048;-70
2022/06/24 00:33:09;;;;;;;22.58;16.95;;;;;;;;;;5096225;28;20079;-70
2022/06/24 00:35:36;;;;;;;21.02;17.20;;;;;;;;;;5095584;28;20071;-70
2022/06/24 00:38:19;;;;;;;20.30;16.80;;;;;;;;;;5096211;28;20047;-70
2022/06/24 00:40:47;;;;;;;20.80;16.67;;;;;;;;;;5095328;28;20437;-70
2022/06/24 00:43:43;;;;;;;22.58;17.08;;;;;;;;;;5095472;28;20454;-70
2022/06/24 00:46:14;;;;;;;20.75;16.08;;;;;;;;;;5082251;28;20040;-70
2022/06/24 00:48:45;;;;;;;22.52;16.33;;;;;;;;;;5095383;28;20044;-70
2022/06/24 00:51:12;;;;;;;22.65;16.33;;;;;;;;;;5095258;28;20044;-70
2022/06/24 00:53:48;;;;;;;20.77;15.40;;;;;;;;;;5095424;28;20044;-70
2022/06/24 00:56:16;;;;;;;20.10;14.93;;;;;;;;;;5095142;28;20649;-70
2022/06/24 00:58:42;;;;;;;;;;;;;;;;;;5095929;28;20044;-70
2022/06/24 01:01:09;;;;;;;18.77;14.68;;;;;;;;;;5095050;28;20264;-70
2022/06/24 01:03:41;;;;;;;21.50;16.60;;;;;;;;;;5095422;28;20047;-70
2022/06/24 01:06:08;;;;;;;18.90;14.68;;;;;;;;;;5094802;28;20496;-70
2022/06/24 01:08:35;;;;;;;17.10;13.47;;;;;;;;;;5095263;28;20056;-70
2022/06/24 01:11:04;;;;;;;18.20;14.18;;;;;;;;;;5094960;28;20056;-70
2022/06/24 01:13:31;;;;;;;22.45;15.73;;;;;;;;;;5094698;28;20491;-70
2022/06/24 01:15:57;;;;;;;19.08;15.45;;;;;;;;;;5094923;28;20090;-70
2022/06/24 01:18:24;;;;;;;24.55;17.10;;;;;;;;;;5094587;28;20507;-70
2022/06/24 01:20:50;;;;;;;21.73;17.25;;;;;;;;;;5094666;28;20082;-70
2022/06/24 01:23:24;;;;;;;20.55;15.88;;;;;;;;;;5094911;28;20051;-70
2022/06/24 01:25:51;;;;;;;24.90;17.15;;;;;;;;;;5094640;28;20077;-70
2022/06/24 01:28:17;;;;;;;20.77;17.40;;;;;;;;;;5094515;28;20556;-70
2022/06/24 01:30:44;;;;;;;22.38;16.48;;;;;;;;;;5094494;28;20515;-70
2022/06/24 01:33:10;;;;;;;21.47;15.80;;;;;;;;;;5094740;28;20395;-70
2022/06/24 01:35:37;;;;;;;22.77;17.15;;;;;;;;;;5094321;28;20040;-70
2022/06/24 01:38:03;;;;;;;21.45;16.50;;;;;;;;;;5094848;28;20093;-70
2022/06/24 01:40:30;;;;;;;23.08;16.45;;;;;;;;;;5094205;28;20052;-70
2022/06/24 01:42:56;;;;;;;20.55;16.58;;;;;;;;;;5094588;28;20460;-70
2022/06/24 01:45:23;;;;;;;19.90;16.67;;;;;;;;;;5094456;28;20048;-70
2022/06/24 01:47:49;;;;;;;19.08;14.93;;;;;;;;;;5094095;28;20074;-70
2022/06/24 01:50:15;;;;;;;20.80;16.15;;;;;;;;;;5094159;28;20052;-70
2022/06/24 01:52:42;;;;;;;20.83;15.97;;;;;;;;;;5093970;28;20048;-70
2022/06/24 01:55:09;;;;;;;19.77;15.70;;;;;;;;;;5094157;28;20044;-70
2022/06/24 01:57:35;;;;;;;20.33;16.33;;;;;;;;;;5094023;28;20051;-70
2022/06/24 02:00:02;;;;;;;18.08;14.63;;;;;;;;;;5094193;28;20044;-70
2022/06/24 02:02:29;;;;;;;18.45;15.48;;;;;;;;;;5093940;28;20552;-70
2022/06/24 02:04:56;;;;;;;19.02;15.43;;;;;;;;;;5094218;28;20048;-70
2022/06/24 02:07:22;;;;;;;17.27;14.73;;;;;;;;;;5093725;28;20059;-70
2022/06/24 02:15:19;;;;;;;18.27;14.45;;;;;;;;;;5094019;28;20052;-70
2022/06/24 02:17:46;;;;;;;19.60;15.02;;;;;;;;;;5093666;28;20487;-70
2022/06/24 02:20:12;;;;;;;17.45;14.82;;;;;;;;;;5093892;28;20044;-70
2022/06/24 02:22:39;;;;;;;16.88;14.80;;;;;;;;;;5094078;28;20101;-69
2022/06/24 02:25:05;;;;;;;14.95;13.15;;;;;;;;;;5093439;28;20067;-70
2022/06/24 02:27:32;;;;;;;17.55;13.38;;;;;;;;;;5093770;28;20407;-70
2022/06/24 02:29:58;;;;;;;16.52;13.52;;;;;;;;;;5093687;28;20612;-70
2022/06/24 02:32:25;;;;;;;15.88;14.18;;;;;;;;;;5093362;28;20062;-70
2022/06/24 02:34:51;;;;;;;14.87;13.27;;;;;;;;;;5093255;28;20040;-70
2022/06/24 02:37:18;;;;;;;16.88;13.60;;;;;;;;;;5093135;28;20549;-70
2022/06/24 02:39:44;;;;;;;16.83;14.13;;;;;;;;;;5093012;28;20087;-70
2022/06/24 02:42:11;;;;;;;15.27;13.68;;;;;;;;;;5093315;28;20047;-70
2022/06/24 02:44:37;;;;;;;14.27;12.77;;;;;;;;;;5092224;28;20484;-70
2022/06/24 02:47:09;;;;;;;15.85;13.65;;;;;;;;;;5093384;28;20052;-70
2022/06/24 02:49:36;;;;;;;14.68;12.73;;;;;;;;;;5093383;28;20121;-70
2022/06/24 02:52:02;;;;;;;16.33;13.20;;;;;;;;;;5092445;28;20075;-70
2022/06/24 02:54:29;;;;;;;14.40;12.98;;;;;;;;;;5092819;28;20580;-70
2022/06/24 02:56:55;;;;;;;16.48;13.02;;;;;;;;;;5093044;28;20044;-70
2022/06/24 02:59:22;;;;;;;13.82;12.38;;;;;;;;;;5092994;28;20075;-70
2022/06/24 03:01:49;;;;;;;15.35;13.13;;;;;;;;;;5092668;28;20492;-70
2022/06/24 03:04:15;;;;;;;17.75;13.10;;;;;;;;;;5092845;28;20048;-70
2022/06/24 03:06:42;;;;;;;14.25;12.75;;;;;;;;;;5092884;28;20048;-70
2022/06/24 03:09:08;;;;;;;13.40;12.02;;;;;;;;;;5092921;28;20097;-70
2022/06/24 03:11:35;;;;;;;15.18;12.45;;;;;;;;;;5092787;28;20125;-70
2022/06/24 03:14:01;;;;;;;16.30;12.85;;;;;;;;;;5092753;28;20037;-70
2022/06/24 03:16:28;;;;;;;13.93;12.43;;;;;;;;;;5092748;28;20101;-70
2022/06/24 03:18:54;;;;;;;14.02;12.35;;;;;;;;;;5092368;28;20051;-70
2022/06/24 03:21:21;;;;;;;13.73;11.73;;;;;;;;;;5092430;28;20105;-70
2022/06/24 03:23:48;;;;;;;14.93;13.25;;;;;;;;;;5092338;28;20066;-70
2022/06/24 03:26:14;;;;;;;14.38;12.55;;;;;;;;;;5092351;28;20539;-70
2022/06/24 03:28:41;;;;;;;14.02;12.50;;;;;;;;;;5092214;28;20048;-70
2022/06/24 03:31:11;;;;;;;15.18;13.00;;;;;;;;;;5092222;28;20079;-70
2022/06/24 03:33:38;;;;;;;15.48;13.27;;;;;;;;;;5092050;28;20407;-70
2022/06/24 03:36:08;;;;;;;15.23;13.30;;;;;;;;;;5092491;28;20040;-70
2022/06/24 03:38:35;;;;;;;15.05;12.75;;;;;;;;;;5092165;28;20048;-70
2022/06/24 03:41:01;;;;;;;15.23;13.73;;;;;;;;;;5092425;28;20044;-70
2022/06/24 03:43:28;;;;;;;14.27;12.73;;;;;;;;;;5091990;28;20101;-70
2022/06/24 03:46:04;;;;;;;14.70;12.68;;;;;;;;;;5090705;28;20055;-70
2022/06/24 03:48:30;;;;;;;13.10;11.80;;;;;;;;;;5091965;28;20491;-70
2022/06/24 03:50:57;;;;;;;15.07;12.70;;;;;;;;;;5092028;28;20105;-70
2022/06/24 03:53:23;;;;;;;15.15;12.55;;;;;;;;;;5091825;28;20062;-70
2022/06/24 03:55:50;;;;;;;15.75;13.38;;;;;;;;;;5090579;28;20101;-70
2022/06/24 03:58:18;;;;;;;15.00;13.40;;;;;;;;;;5092083;28;20128;-70
2022/06/24 04:00:44;;;;;;;16.95;14.25;;;;;;;;;;5091769;28;20076;-70
2022/06/24 04:03:11;;;;;;;14.75;13.18;;;;;;;;;;5091904;28;20101;-70
2022/06/24 04:05:38;;;;;;;15.87;14.17;;;;;;;;;;5091240;28;20055;-70
2022/06/24 04:08:04;;;;;;;16.70;14.07;;;;;;;;;;5091965;28;20068;-70
2022/06/24 04:10:31;;;;;;;21.00;15.07;;;;;;;;;;5090826;28;20048;-70
2022/06/24 04:12:57;;;;;;;18.38;15.45;;;;;;;;;;5091531;28;20495;-71
2022/06/24 04:15:24;;;;;;;16.80;15.10;;;;;;;;;;5091602;28;20044;-70
2022/06/24 04:17:50;;;;;;;16.83;15.02;;;;;;;;;;5091710;28;20411;-70
2022/06/24 04:20:17;;;;;;;15.60;13.77;;;;;;;;;;5091963;28;20048;-70
2022/06/24 04:22:44;;;;;;;16.10;14.00;;;;;;;;;;5091832;28;20056;-70
2022/06/24 04:25:11;;;;;;;17.73;14.15;;;;;;;;;;5091807;28;20101;-70
2022/06/24 04:27:37;;;;;;;16.85;14.45;;;;;;;;;;5090369;28;20491;-70
2022/06/24 04:30:05;;;;;;;19.30;14.10;;;;;;;;;;5090458;28;20055;-70
2022/06/24 04:32:32;;;;;;;16.20;13.32;;;;;;;;;;5091767;28;20106;-70
2022/06/24 04:34:59;;;;;;;16.20;13.38;;;;;;;;;;5091682;28;20044;-70
2022/06/24 04:37:25;;;;;;;19.05;13.35;;;;;;;;;;5091754;28;20080;-70
2022/06/24 04:39:52;;;;;;;15.23;13.73;;;;;;;;;;5091241;28;20538;-71
2022/06/24 04:42:18;;;;;;;18.17;14.60;;;;;;;;;;5091629;28;20048;-70
2022/06/24 04:44:46;;;;;;;13.85;12.32;;;;;;;;;;5091388;28;20557;-70
2022/06/24 04:47:17;;;;;;;15.60;12.50;;;;;;;;;;5091755;28;20051;-70
2022/06/24 04:49:43;;;;;;;14.20;12.73;;;;;;;;;;5091506;28;20450;-70
2022/06/24 04:52:10;;;;;;;14.88;12.60;;;;;;;;;;5091597;28;20291;-70
2022/06/24 04:54:36;;;;;;;14.85;12.80;;;;;;;;;;5091131;28;20048;-70
2022/06/24 04:57:03;;;;;;;14.40;11.85;;;;;;;;;;5091478;28;20127;-70
2022/06/24 04:59:29;;;;;;;13.87;12.03;;;;;;;;;;5091553;28;20044;-70
2022/06/24 05:01:56;;;;;;;15.20;12.13;;;;;;;;;;5091587;28;20456;-70
2022/06/24 05:04:22;;;;;;;14.52;11.43;;;;;;;;;;5091136;28;20516;-70
2022/06/24 05:06:49;;;;;;;14.63;11.57;;;;;;;;;;5090069;28;20072;-71
2022/06/24 05:09:16;;;;;;;13.35;10.43;;;;;;;;;;5091280;28;20062;-70
2022/06/24 05:11:43;;;;;;;11.73;10.30;;;;;;;;;;5091337;28;20100;-71
2022/06/24 05:14:10;;;;;;;10.57;9.60;;;;;;;;;;5091361;28;20101;-71
2022/06/24 05:16:36;;;;;;;14.60;9.88;;;;;;;;;;5093978;28;20040;-71
2022/06/24 05:19:05;;;;;;;11.63;9.30;;;;;;;;;;5094940;28;20052;-70
2022/06/24 05:21:31;;;;;;;11.63;9.63;;;;;;;;;;5095011;28;20048;-70
2022/06/24 05:23:58;;;;;;;9.30;7.95;;;;;;;;;;5094803;28;20043;-71
2022/06/24 05:26:25;;;;;;;8.15;7.35;;;;;;;;;;5094920;28;20055;-71
2022/06/24 05:28:51;;;;;;;11.70;7.80;;;;;;;;;;5093396;28;20083;-71
2022/06/24 05:31:18;;;;;;;7.45;6.70;;;;;;;;;;5094757;28;20458;-70
2022/06/24 05:33:44;;;;;;;8.03;7.10;;;;;;;;;;5094773;28;20047;-70
2022/06/24 05:36:11;;;;;;;8.07;7.25;;;;;;;;;;5094838;28;20052;-70
2022/06/24 05:38:38;;;;;;;9.13;6.80;;;;;;;;;;5094152;28;20454;-71
2022/06/24 05:41:10;;;;;;;7.53;6.70;;;;;;;;;;5094718;28;20128;-70
2022/06/24 05:43:37;;;;;;;6.63;5.90;;;;;;;;;;5094305;28;20090;-70
2022/06/24 05:46:03;;;;;;;5.82;5.18;;;;;;;;;;5094594;28;20048;-71
2022/06/24 05:48:30;;;;;;;6.80;5.32;;;;;;;;;;5094282;28;20055;-70
2022/06/24 05:50:57;;;;;;;7.07;4.43;;;;;;;;;;5094198;28;20430;-71
2022/06/24 05:56:08;;;;;;;4.85;4.28;;;;;;;;;;5094267;28;20097;-70
2022/06/24 05:58:35;;;;;;;4.80;3.95;;;;;;;;;;5093925;28;20047;-71
2022/06/24 06:01:06;;;;;;;6.50;4.13;;;;;;;;;;5094038;28;20087;-70
2022/06/24 06:03:32;;;;;;;6.40;4.40;;;;;;;;;;5093736;28;20048;-70
2022/06/24 06:05:59;;;;;;;6.80;4.95;;;;;;;;;;5093562;28;20139;-71
2022/06/24 06:08:26;;;;;;;5.63;4.90;;;;;;;;;;5093364;28;20573;-70
2022/06/24 06:10:52;;;;;;;9.43;5.90;;;;;;;;;;5093602;28;20086;-70
2022/06/24 06:13:18;;;;;;;9.23;6.93;;;;;;;;;;5093689;28;20202;-70
2022/06/24 06:15:45;;;;;;;8.63;7.70;;;;;;;;;;5093530;28;20040;-70
2022/06/24 06:18:11;;;;;;;10.98;7.65;;;;;;;;;;5089393;28;20048;-70
2022/06/24 06:20:38;;;;;;;9.07;8.18;;;;;;;;;;5093438;28;20048;-71
2022/06/24 06:23:11;;;;;;;9.57;8.73;;;;;;;;;;5093206;28;20458;-70
2022/06/24 06:25:38;;;;;;;9.95;8.98;;;;;;;;;;5093449;28;20048;-70
2022/06/24 06:28:05;;;;;;;9.85;8.85;;;;;;;;;;5092368;28;20102;-70
2022/06/24 06:30:31;;;;;;;10.07;9.07;;;;;;;;;;5093262;28;20079;-71
2022/06/24 06:32:58;;;;;;;10.07;8.63;;;;;;;;;;5092724;28;20492;-71
2022/06/24 06:35:24;;;;;;;10.23;9.23;;;;;;;;;;5093002;28;20055;-70
2022/06/24 06:37:51;;;;;;;10.45;9.13;;;;;;;;;;5093150;28;20048;-70
2022/06/24 06:40:17;;;;;;;11.25;8.98;;;;;;;;;;5092774;28;20056;-71
2022/06/24 06:42:44;;;;;;;8.77;8.07;;;;;;;;;;5091912;28;20121;-70
2022/06/24 06:45:10;;;;;;;11.43;8.32;;;;;;;;;;5093207;28;20101;-71
2022/06/24 06:47:37;;;;;;;9.27;8.45;;;;;;;;;;5093124;28;20749;-70
2022/06/24 06:50:05;;;;;;;8.40;7.60;;;;;;;;;;5093012;28;20048;-69
2022/06/24 06:52:37;;;;;;;9.20;8.40;;;;;;;;;;5092682;28;20047;-73
2022/06/24 06:55:04;;;;;;;9.37;8.40;;;;;;;;;;5092840;28;20040;-70
2022/06/24 06:57:31;;;;;;;13.60;8.88;;;;;;;;;;5092662;28;20097;-72
2022/06/24 06:59:57;;;;;;;9.13;7.75;;;;;;;;;;5091111;28;20389;-73
2022/06/24 07:02:24;;;;;;;11.57;8.20;;;;;;;;;;5092625;28;20094;-72
2022/06/24 07:04:50;;;;;;;8.93;7.90;;;;;;;;;;5092452;28;20496;-65
2022/06/24 07:07:17;;;;;;;9.48;8.57;;;;;;;;;;5092393;28;20056;-65
2022/06/24 07:09:44;;;;;;;9.60;8.70;;;;;;;;;;5092667;28;20052;-65
2022/06/24 07:12:11;;;;;;;10.05;8.75;;;;;;;;;;5092545;28;20052;-65
2022/06/24 07:14:39;;;;;;;10.23;7.90;;;;;;;;;;5092724;28;20089;-65
2022/06/24 07:17:13;;;;;;;10.52;9.13;;;;;;;;;;5092725;28;20097;-65
2022/06/24 07:19:39;;;;;;;9.53;8.63;;;;;;;;;;5092240;28;20055;-65
2022/06/24 07:22:06;;;;;;;9.48;8.57;;;;;;;;;;5092402;28;20641;-65
2022/06/24 07:24:33;;;;;;;9.73;8.70;;;;;;;;;;5092667;28;20056;-65
2022/06/24 07:27:06;;;;;;;10.30;8.73;;;;;;;;;;5092615;28;20067;-64
2022/06/24 07:29:34;;;;;;;9.93;8.90;;;;;;;;;;5092577;28;20052;-64
2022/06/24 07:32:01;;;;;;;9.63;8.65;;;;;;;;;;5092285;28;20048;-65
2022/06/24 07:34:28;;;;;;;9.93;8.10;;;;;;;;;;5092146;28;20480;-64
2022/06/24 07:36:54;;;;;;;8.60;7.72;;;;;;;;;;5092152;28;20044;-64
2022/06/24 07:39:21;;;;;;;8.13;7.28;;;;;;;;;;5091377;28;20051;-64
2022/06/24 07:41:47;;;;;;;9.30;8.15;;;;;;;;;;5091569;28;20430;-71
2022/06/24 07:44:13;;;;;;;8.82;7.13;;;;;;;;;;5092310;28;20104;-72
2022/06/24 07:46:40;;;;;;;7.63;6.85;;;;;;;;;;5092418;28;20087;-72
2022/06/24 07:49:06;;;;;;;7.63;6.83;;;;;;;;;;5091953;28;20515;-72
2022/06/24 07:51:33;;;;;;;6.32;5.70;;;;;;;;;;5092267;28;20132;-72
2022/06/24 07:53:59;;;;;;;7.32;5.85;;;;;;;;;;5084937;28;20442;-69
2022/06/24 07:59:12;;;;;;;9.45;6.68;;;;;;;;;;5089615;28;20044;-70
2022/06/24 08:01:39;;;;;;;6.57;5.90;;;;;;;;;;5091496;28;20044;-67
2022/06/24 08:04:07;;;;;;;8.90;5.60;;;;;;;;;;5090341;28;20281;-70
2022/06/24 08:06:39;;;;;;;7.63;6.55;;;;;;;;;;5089528;28;20090;-70
2022/06/24 08:09:06;;;;;;;8.90;7.78;;;;;;;;;;5081398;28;20063;-71
2022/06/24 08:11:33;;;;;;;10.85;8.95;;;;;;;;;;5089432;28;20076;-70
2022/06/24 08:13:59;;;;;;;9.10;7.97;;;;;;;;;;5087821;28;20578;-69
2022/06/24 08:16:26;;;;;;;10.55;7.85;;;;;;;;;;5091274;28;20450;-69
2022/06/24 08:18:53;;;;;;;10.90;8.85;;;;;;;;;;5091367;28;20131;-70
2022/06/24 08:21:19;;;;;;;9.40;8.30;;;;;;;;;;5091005;28;20073;-70
2022/06/24 08:23:46;;;;;;;12.27;8.77;;;;;;;;;;5091283;28;20052;-72
2022/06/24 08:26:12;;;;;;;9.88;8.88;;;;;;;;;;5088657;28;20128;-71
2022/06/24 08:28:39;;;;;;;11.60;9.83;;;;;;;;;;5091120;28;20048;-71
2022/06/24 08:31:05;;;;;;;12.75;10.82;;;;;;;;;;5090922;28;20082;-72
2022/06/24 08:33:32;;;;;;;12.50;10.30;;;;;;;;;;5091229;28;20088;-71
2022/06/24 08:35:58;;;;;;;13.48;11.02;;;;;;;;;;5090750;28;20491;-72
2022/06/24 08:38:25;;;;;;;15.67;12.30;;;;;;;;;;5090700;28;20041;-69
2022/06/24 08:40:53;;;;;;;13.30;11.52;;;;;;;;;;5070917;28;20044;-68
2022/06/24 08:43:22;;;;;;;14.65;12.13;;;;;;;;;;5070752;28;20044;-68
2022/06/24 08:45:49;;;;;;;14.70;12.15;;;;;;;;;;5070921;28;20436;-69
2022/06/24 08:48:16;;;;;;;15.52;11.50;;;;;;;;;;5070586;28;20079;-70
2022/06/24 08:50:42;;;;;;;14.23;11.73;;;;;;;;;;5069683;28;20472;-67
2022/06/24 08:53:10;;;;;;;13.77;11.57;;;;;;;;;;5074752;28;20049;-67
2022/06/24 08:55:38;;;;;;;14.27;11.77;;;;;;;;;;5073328;28;20098;-68
2022/06/24 08:58:08;;;;;;;15.10;11.13;;;;;;;;;;5074212;28;20557;-68
2022/06/24 09:00:35;;;;;;;15.38;11.30;;;;;;;;;;5073018;28;20552;-68
2022/06/24 09:03:02;;;;;;;11.65;9.57;;;;;;;;;;5074129;28;20040;-67
2022/06/24 09:05:29;;;;;;;14.07;10.85;;;;;;;;;;5074462;28;20052;-68
2022/06/24 09:08:06;;;;;;;11.18;9.27;;;;;;;;;;5074134;28;20558;-68
2022/06/24 09:10:33;;;;;;;11.02;9.38;;;;;;;;;;5074156;28;20512;-68
2022/06/24 09:12:59;;;;;;;12.32;9.98;;;;;;;;;;5074011;28;20442;-68
2022/06/24 09:15:26;;;;;;;10.25;8.23;;;;;;;;;;5074030;28;20506;-68
2022/06/24 09:17:54;;;;;;;9.15;7.75;;;;;;;;;;5074173;28;20082;-69
2022/06/24 09:20:23;;;;;;;8.45;7.38;;;;;;;;;;5074201;28;20057;-68
2022/06/24 09:23:05;;;;;;;8.50;7.13;;;;;;;;;;5074303;28;20052;-68
2022/06/24 09:25:48;;;;;;;8.35;6.85;;;;;;;;;;5074123;28;20055;-68
2022/06/24 09:28:21;;;;;;;8.25;6.32;;;;;;;;;;5073809;28;20052;-68
2022/06/24 09:30:48;;;;;;;8.55;6.35;;;;;;;;;;5073963;28;20099;-67
2022/06/24 09:33:16;;;;;;;6.57;5.37;;;;;;;;;;5074025;28;20102;-68
2022/06/24 09:35:59;;;;;;;3.83;3.42;;;;;;;;;;5073883;28;20044;-68
2022/06/24 09:38:26;;;;;;;5.25;3.83;;;;;;;;;;5073474;28;20094;-67
2022/06/24 09:41:05;;;;;;;3.92;3.17;;;;;;;;;;5094158;28;20048;-67
2022/06/24 09:43:32;;;;;;;3.10;2.80;;;;;;;;;;5094031;28;20051;-68
2022/06/24 09:45:59;;;;;;;3.50;3.20;;;;;;;;;;5093173;28;20040;-67
2022/06/24 09:48:32;;;;;;;3.97;3.17;;;;;;;;;;5094096;28;20087;-67
2022/06/24 09:51:00;;;;;;;3.40;3.10;;;;;;;;;;5091850;28;20141;-67
2022/06/24 09:53:27;;;;;;;3.33;3.03;;;;;;;;;;5093938;28;20052;-67
2022/06/24 09:55:54;;;;;;;3.60;3.30;;;;;;;;;;5093762;28;20064;-67
2022/06/24 09:58:21;;;;;;;3.17;2.83;;;;;;;;;;5093751;28;20044;-67
2022/06/24 10:00:48;;;;;;;4.53;3.78;;;;;;;;;;5092281;28;20491;-66
2022/06/24 10:03:15;;;;;;;5.20;4.07;;;;;;;;;;5077954;28;20476;-67
2022/06/24 10:05:44;;;;;;;4.70;4.28;;;;;;;;;;5093366;28;20087;-67
2022/06/24 10:08:14;;;;;;;5.10;4.00;;;;;;;;;;5093449;28;20093;-67
2022/06/24 10:10:46;;;;;;;4.65;4.25;;;;;;;;;;5093282;28;20491;-67
2022/06/24 10:13:26;;;;;;;5.00;4.60;;;;;;;;;;5093240;28;20051;-68
2022/06/24 10:15:54;;;;;;;5.70;4.88;;;;;;;;;;5093635;28;20126;-69
2022/06/24 10:18:23;;;;;;;6.95;5.85;;;;;;;;;;5079426;28;20044;-68
2022/06/24 10:20:50;;;;;;;6.75;5.70;;;;;;;;;;5092741;28;20059;-69
2022/06/24 10:23:36;;;;;;;10.13;7.43;;;;;;;;;;5092499;28;20079;-69
2022/06/24 10:26:10;;;;;;;8.23;7.30;;;;;;;;;;5092172;28;20101;-69
2022/06/24 10:28:55;;;;;;;8.20;7.22;;;;;;;;;;5093619;28;20040;-69
2022/06/24 10:31:42;;;;;;;9.75;8.02;;;;;;;;;;5092994;28;20098;-69
2022/06/24 10:34:09;;;;;;;8.85;7.95;;;;;;;;;;5093281;28;20052;-69
2022/06/24 10:36:35;;;;;;;8.68;7.15;;;;;;;;;;5093494;28;20044;-69
2022/06/24 10:39:14;;;;;;;8.73;6.80;;;;;;;;;;5093083;28;20461;-68
2022/06/24 10:41:41;;;;;;;6.25;5.65;;;;;;;;;;5093387;28;20052;-69
2022/06/24 10:44:26;;;;;;;6.55;5.95;;;;;;;;;;5093093;28;20089;-67
2022/06/24 10:47:05;;;;;;;5.00;4.60;;;;;;;;;;5093045;28;20499;-68
2022/06/24 10:49:54;;;;;;;5.50;5.00;;;;;;;;;;5092632;28;20048;-67
2022/06/24 10:52:30;;;;;;;6.50;5.05;;;;;;;;;;5093003;28;20109;-68
2022/06/24 10:55:15;;;;;;;5.55;4.80;;;;;;;;;;5093198;28;20048;-67
2022/06/24 10:57:49;;;;;;;5.43;4.90;;;;;;;;;;5092673;28;20048;-67
2022/06/24 11:00:17;;;;;;;5.03;4.18;;;;;;;;;;5092961;28;20048;-67
2022/06/24 11:02:49;;;;;;;5.75;5.18;;;;;;;;;;5093038;28;20093;-67
2022/06/24 11:05:16;;;;;;;7.32;4.88;;;;;;;;;;5093093;28;20040;-67
2022/06/24 11:07:46;;;;;;;6.18;4.97;;;;;;;;;;5091645;28;20109;-68
2022/06/24 11:10:17;;;;;;;4.82;4.18;;;;;;;;;;5092607;28;20060;-67
2022/06/24 11:12:51;;;;;;;4.05;3.65;;;;;;;;;;5092698;28;20051;-67
2022/06/24 11:15:18;;;;;;;4.53;3.60;;;;;;;;;;5092734;28;20048;-68
2022/06/24 11:17:45;;;;;;;4.43;3.13;;;;;;;;;;5092304;28;20078;-67
2022/06/24 11:20:12;;;;;;;3.95;3.20;;;;;;;;;;5092390;28;20036;-67
2022/06/24 11:22:45;;;;;;;4.07;3.33;;;;;;;;;;5092273;28;20064;-67
2022/06/24 11:25:12;;;;;;;3.50;3.20;;;;;;;;;;5092715;28;20044;-67
2022/06/24 11:27:39;;;;;;;3.60;3.30;;;;;;;;;;5092905;28;20120;-67
2022/06/24 11:30:09;;;;;;;3.35;3.05;;;;;;;;;;5092288;28;20459;-67
2022/06/24 11:32:55;;;;;;;2.80;2.60;;;;;;;;;;5092301;28;20084;-67
2022/06/24 11:35:22;;;;;;;3.55;2.88;;;;;;;;;;5091155;28;20090;-66
2022/06/24 11:37:49;;;;;;;;;;;;;;;;;;5092816;28;20059;-67
2022/06/24 11:40:33;;;;;;;4.03;2.72;;;;;;;;;;5091996;28;19923;-67
2022/06/24 11:43:04;;;;;;;2.45;2.08;;;;;;;;;;5092346;28;20098;-67
2022/06/24 11:45:38;;;;;;;2.60;2.40;;;;;;;;;;5092027;28;20048;-67
2022/06/24 11:48:05;;;;;;;2.85;2.50;;;;;;;;;;5091986;28;20561;-66
2022/06/24 11:50:33;;;;;;;2.92;2.60;;;;;;;;;;5092191;28;20106;-66
2022/06/24 11:53:01;;;;;;;5.53;2.72;;;;;;;;;;5091874;28;20435;-66
2022/06/24 11:55:32;;;;;;;3.15;2.88;;;;;;;;;;5092201;28;20434;-66
2022/06/24 11:57:59;;;;;;;2.95;2.65;;;;;;;;;;5090000;28;20036;-66
2022/06/24 12:00:27;;;;;;;2.88;2.58;;;;;;;;;;5091837;28;20491;-66
2022/06/24 12:02:55;;;;;;;4.00;2.60;;;;;;;;;;5092057;28;20097;-66
2022/06/24 12:05:22;;;;;;;4.03;3.17;;;;;;;;;;5091750;28;20058;-66
2022/06/24 12:07:49;;;;;;;4.45;3.72;;;;;;;;;;5091932;28;20097;-66
2022/06/24 12:10:16;;;;;;;3.35;3.10;;;;;;;;;;5092034;28;20090;-66
2022/06/24 12:13:00;;;;;;;3.50;2.80;;;;;;;;;;5091974;28;20089;-67
2022/06/24 12:15:35;;;;;;;3.78;3.05;;;;;;;;;;5090475;28;20052;-67
2022/06/24 12:18:11;;;;;;;4.20;3.00;;;;;;;;;;5089028;28;20074;-66
2022/06/24 12:20:37;;;;;;;3.63;3.33;;;;;;;;;;5091435;28;20052;-66
2022/06/24 12:23:17;;;;;;;5.47;3.75;;;;;;;;;;5080066;28;20115;-67
2022/06/24 12:25:44;;;;;;;4.03;3.08;;;;;;;;;;5088580;28;20504;-66
2022/06/24 12:28:31;;;;;;;7.80;3.72;;;;;;;;;;5092436;28;20096;-66
2022/06/24 12:30:57;;;;;;;;;;;;;;;;;;5083125;28;20500;-67
2022/06/24 12:33:24;;;;;;;3.38;2.97;;;;;;;;;;5081401;28;19924;-67
2022/06/24 12:36:10;;;;;;;3.03;2.70;;;;;;;;;;5081114;28;20121;-67
2022/06/24 12:38:41;;;;;;;3.03;2.67;;;;;;;;;;5095044;28;20040;-68
2022/06/24 12:41:08;;;;;;;3.45;3.17;;;;;;;;;;5093191;28;20044;-67
2022/06/24 12:43:35;;;;;;;3.88;3.30;;;;;;;;;;5094816;28;20109;-67
2022/06/24 12:46:04;;;;;;;3.75;3.45;;;;;;;;;;5094830;28;20876;-68
2022/06/24 12:51:23;;;;;;;4.00;3.40;;;;;;;;;;5095120;28;20059;-66
2022/06/24 12:53:50;;;;;;;4.60;4.20;;;;;;;;;;5080667;28;20076;-66
2022/06/24 12:56:16;;;;;;;5.30;4.80;;;;;;;;;;5074229;28;20052;-66
2022/06/24 12:58:43;;;;;;;4.93;4.53;;;;;;;;;;5073418;28;20080;-66
2022/06/24 13:01:09;;;;;;;5.90;4.80;;;;;;;;;;5074674;28;20048;-66
2022/06/24 13:03:37;;;;;;;6.85;6.15;;;;;;;;;;5074376;28;20094;-66
2022/06/24 13:06:03;;;;;;;5.85;5.35;;;;;;;;;;5074467;28;20114;-66
2022/06/24 13:08:30;;;;;;;5.85;5.25;;;;;;;;;;5074497;28;20048;-66
2022/06/24 13:10:56;;;;;;;5.80;5.30;;;;;;;;;;5074200;28;20365;-66
2022/06/24 13:13:23;;;;;;;7.57;6.40;;;;;;;;;;5074058;28;20052;-66
2022/06/24 13:15:49;;;;;;;7.40;6.70;;;;;;;;;;5073100;28;20104;-66
2022/06/24 13:18:16;;;;;;;8.57;7.63;;;;;;;;;;5088589;28;20462;-66
2022/06/24 13:20:42;;;;;;;8.80;7.83;;;;;;;;;;5094561;28;20277;-66
2022/06/24 13:23:09;;;;;;;7.97;7.18;;;;;;;;;;5092576;28;20094;-66
2022/06/24 13:25:42;;;;;;;7.93;7.03;;;;;;;;;;5074266;28;20127;-66
2022/06/24 13:28:08;;;;;;;7.45;6.68;;;;;;;;;;5074131;28;20044;-66
2022/06/24 13:30:35;;;;;;;7.50;6.25;;;;;;;;;;5072469;28;20052;-67
2022/06/24 13:33:02;;;;;;;7.45;6.75;;;;;;;;;;5072489;28;20094;-66
2022/06/24 13:35:28;;;;;;;7.55;6.85;;;;;;;;;;5072263;28;20484;-66
2022/06/24 13:37:55;;;;;;;9.07;7.87;;;;;;;;;;5073331;28;20085;-66
2022/06/24 13:40:21;;;;;;;8.03;7.33;;;;;;;;;;5072089;28;20311;-66
2022/06/24 13:42:48;;;;;;;9.85;7.90;;;;;;;;;;5073891;28;20438;-67
2022/06/24 13:45:15;;;;;;;8.37;7.00;;;;;;;;;;5073806;28;20102;-67
2022/06/24 13:47:42;;;;;;;7.15;6.43;;;;;;;;;;5073677;28;20133;-66
2022/06/24 13:50:08;;;;;;;7.43;6.60;;;;;;;;;;5073551;28;20408;-67
2022/06/24 13:52:35;;;;;;;9.57;6.97;;;;;;;;;;5089773;28;20059;-67
2022/06/24 13:55:03;;;;;;;7.43;6.43;;;;;;;;;;5091611;28;20052;-66
2022/06/24 13:57:29;;;;;;;7.20;5.85;;;;;;;;;;5093269;28;20301;-67
2022/06/24 13:59:57;;;;;;;8.40;6.70;;;;;;;;;;5093561;28;20048;-67
2022/06/24 14:02:23;;;;;;;6.03;5.23;;;;;;;;;;5093513;28;20076;-67
2022/06/24 14:04:58;;;;;;;7.13;5.38;;;;;;;;;;5093404;28;20058;-67
2022/06/24 14:07:24;;;;;;;6.85;4.90;;;;;;;;;;5093628;28;20067;-66
2022/06/24 14:09:51;;;;;;;5.05;4.53;;;;;;;;;;5091606;28;20803;-67
2022/06/24 14:12:37;;;;;;;7.13;4.47;;;;;;;;;;5093153;28;20523;-73
2022/06/24 14:15:05;;;;;;;4.55;3.33;;;;;;;;;;5091732;28;20048;-72
2022/06/24 14:17:31;;;;;;;3.58;3.15;;;;;;;;;;5093323;28;20579;-72
2022/06/24 14:20:03;;;;;;;2.83;2.45;;;;;;;;;;5093345;28;20523;-72
2022/06/24 14:22:29;;;;;;;4.90;2.50;;;;;;;;;;5092686;28;20048;-73
2022/06/24 14:24:56;;;;;;;2.38;2.17;;;;;;;;;;5088839;28;20048;-71
2022/06/24 14:27:22;;;;;;;2.22;1.73;;;;;;;;;;5072808;28;20504;-70
2022/06/24 14:29:49;;;;;;;2.43;1.50;;;;;;;;;;5073230;28;20070;-72
2022/06/24 14:32:15;;;;;;;2.87;1.90;;;;;;;;;;5092926;28;20276;-71
2022/06/24 14:34:42;;;;;;;2.73;1.83;;;;;;;;;;5093041;28;20315;-74
2022/06/24 14:40:10;;;;;;;2.67;1.60;;;;;;;;;;5092975;28;20126;-72
2022/06/24 14:40:13;;;;;;;2.78;1.50;;;;;;;;;;5092757;28;20697;-72
2022/06/24 14:43:03;;;;;;;3.65;1.58;;;;;;;;;;5092277;28;20044;-73
2022/06/24 14:45:30;;;;;;;3.40;1.52;;;;;;;;;;5091935;28;20530;-72
2022/06/24 14:48:00;;;;;;;1.40;1.30;;;;;;;;;;5092091;28;20044;-73
2022/06/24 14:50:27;;;;;;;1.88;1.52;;;;;;;;;;5091553;28;20052;-72
2022/06/24 14:52:54;;;;;;;2.17;1.33;;;;;;;;;;5091016;28;20047;-71
2022/06/24 14:55:22;;;;;;;3.88;1.25;;;;;;;;;;5092266;28;20087;-72